createdAt,value
2023-05-11T00:01:25.019Z,8.35
2023-05-11T00:03:51.784Z,7.93
2023-05-11T00:06:18.442Z,9.02
2023-05-11T00:08:44.968Z,7.20
2023-05-11T00:11:11.585Z,7.38
2023-05-11T00:13:38.098Z,7.90
2023-05-11T00:16:04.873Z,6.88
2023-05-11T00:18:35.725Z,7.72
2023-05-11T00:21:04.605Z,7.25
2023-05-11T00:23:31.236Z,8.10
2023-05-11T00:25:57.763Z,7.88
2023-05-11T00:28:24.289Z,7.60
2023-05-11T00:30:50.970Z,7.10
2023-05-11T00:33:17.380Z,7.47
2023-05-11T00:35:44.026Z,11.00
2023-05-11T00:38:10.532Z,6.60
2023-05-11T00:40:39.411Z,7.72
2023-05-11T00:43:05.945Z,7.68
2023-05-11T00:45:32.713Z,6.72
2023-05-11T00:47:59.300Z,8.02
2023-05-11T00:50:26.581Z,6.90
2023-05-11T00:52:53.333Z,7.53
2023-05-11T00:55:20.047Z,7.07
2023-05-11T00:57:49.584Z,7.18
2023-05-11T01:00:18.663Z,7.55
2023-05-11T01:02:45.512Z,6.93
2023-05-11T01:05:12.199Z,7.00
2023-05-11T01:07:57.363Z,6.97
2023-05-11T01:10:32.750Z,7.85
2023-05-11T01:13:02.825Z,7.05
2023-05-11T01:15:29.322Z,7.50
2023-05-11T01:18:06.245Z,6.85
2023-05-11T01:20:32.738Z,9.57
2023-05-11T01:22:59.130Z,7.13
2023-05-11T01:25:34.936Z,6.97
2023-05-11T01:28:04.320Z,6.68
2023-05-11T01:30:44.377Z,7.10
2023-05-11T01:33:13.332Z,6.90
2023-05-11T01:35:45.182Z,7.15
2023-05-11T01:38:12.019Z,7.25
2023-05-11T01:40:39.528Z,7.20
2023-05-11T01:43:10.068Z,6.65
2023-05-11T01:45:41.247Z,7.73
2023-05-11T01:50:34.138Z,7.40
2023-05-11T01:53:03.494Z,6.47
2023-05-11T01:55:29.907Z,6.90
2023-05-11T01:57:56.383Z,7.20
2023-05-11T02:00:22.942Z,7.35
2023-05-11T02:02:49.596Z,6.47
2023-05-11T02:05:17.441Z,7.57
2023-05-11T02:07:46.223Z,6.82
2023-05-11T02:10:12.762Z,6.65
2023-05-11T02:12:39.765Z,6.38
2023-05-11T02:15:06.521Z,6.80
2023-05-11T02:17:32.947Z,6.78
2023-05-11T02:19:59.527Z,6.75
2023-05-11T02:22:26.666Z,7.15
2023-05-11T02:24:53.038Z,6.47
2023-05-11T02:27:22.337Z,6.78
2023-05-11T02:29:49.246Z,6.20
2023-05-11T02:32:16.462Z,6.68
2023-05-11T02:34:43.471Z,6.13
2023-05-11T02:37:10.828Z,6.43
2023-05-11T02:39:39.633Z,6.20
2023-05-11T02:42:18.672Z,7.03
2023-05-11T02:44:46.998Z,6.10
2023-05-11T02:47:15.853Z,6.82
2023-05-11T02:49:42.342Z,6.82
2023-05-11T02:52:08.868Z,6.40
2023-05-11T02:54:35.599Z,6.50
2023-05-11T02:57:02.083Z,6.35
2023-05-11T02:59:31.023Z,6.75
2023-05-11T03:02:00.462Z,6.25
2023-05-11T03:04:27.050Z,6.45
2023-05-11T03:06:53.445Z,6.50
2023-05-11T03:09:22.719Z,6.55
2023-05-11T03:11:49.246Z,6.75
2023-05-11T03:14:18.152Z,6.57
2023-05-11T03:16:44.739Z,6.50
2023-05-11T03:19:13.551Z,6.60
2023-05-11T03:21:40.054Z,6.75
2023-05-11T03:24:09.402Z,6.43
2023-05-11T03:26:39.040Z,6.28
2023-05-11T03:29:05.949Z,6.10
2023-05-11T03:31:32.476Z,6.38
2023-05-11T03:33:59.219Z,6.97
2023-05-11T03:36:26.040Z,6.30
2023-05-11T03:38:53.655Z,6.55
2023-05-11T03:41:22.866Z,6.32
2023-05-11T03:43:51.528Z,6.28
2023-05-11T03:46:19.080Z,6.45
2023-05-11T03:48:45.546Z,6.47
2023-05-11T03:51:12.124Z,6.63
2023-05-11T03:53:38.560Z,6.53
2023-05-11T03:56:07.288Z,6.40
2023-05-11T03:58:33.756Z,6.82
2023-05-11T04:01:00.328Z,6.18
2023-05-11T04:03:26.913Z,6.57
2023-05-11T04:05:56.888Z,5.95
2023-05-11T04:08:23.348Z,6.30
2023-05-11T04:10:53.151Z,6.18
2023-05-11T04:13:19.505Z,6.28
2023-05-11T04:15:46.262Z,6.10
2023-05-11T04:18:13.016Z,5.80
2023-05-11T04:20:41.772Z,6.45
2023-05-11T04:23:10.596Z,5.63
2023-05-11T04:25:37.114Z,6.78
2023-05-11T04:28:03.640Z,6.60
2023-05-11T04:30:30.154Z,6.18
2023-05-11T04:32:58.791Z,6.20
2023-05-11T04:35:25.527Z,6.40
2023-05-11T04:37:54.346Z,5.80
2023-05-11T04:40:23.842Z,6.45
2023-05-11T04:42:50.451Z,5.70
2023-05-11T04:45:17.625Z,6.22
2023-05-11T04:47:44.236Z,5.90
2023-05-11T04:50:11.034Z,6.10
2023-05-11T04:52:39.854Z,5.95
2023-05-11T04:55:08.729Z,6.57
2023-05-11T04:57:35.277Z,6.28
2023-05-11T05:00:04.281Z,6.18
2023-05-11T05:02:30.904Z,5.90
2023-05-11T05:04:59.718Z,6.97
2023-05-11T05:07:26.205Z,5.90
2023-05-11T05:09:52.738Z,6.50
2023-05-11T05:12:19.298Z,6.10
2023-05-11T05:14:45.880Z,6.80
2023-05-11T05:17:14.712Z,6.07
2023-05-11T05:19:43.510Z,6.07
2023-05-11T05:22:12.956Z,6.45
2023-05-11T05:24:39.415Z,6.55
2023-05-11T05:27:08.245Z,6.55
2023-05-11T05:29:35.041Z,6.15
2023-05-11T05:32:01.962Z,6.40
2023-05-11T05:34:28.453Z,6.63
2023-05-11T05:36:57.358Z,8.05
2023-05-11T05:39:26.330Z,6.57
2023-05-11T05:41:52.744Z,6.78
2023-05-11T05:44:19.250Z,6.25
2023-05-11T05:46:45.953Z,6.50
2023-05-11T05:49:12.424Z,6.68
2023-05-11T05:51:39.017Z,8.07
2023-05-11T05:54:05.540Z,12.50
2023-05-11T05:56:34.985Z,12.70
2023-05-11T05:59:01.563Z,13.57
2023-05-11T06:01:28.447Z,13.98
2023-05-11T06:03:57.206Z,14.13
2023-05-11T06:06:26.014Z,17.08
2023-05-11T06:08:55.687Z,18.40
2023-05-11T06:11:22.674Z,18.80
2023-05-11T06:13:49.197Z,17.50
2023-05-11T06:16:15.960Z,24.98
2023-05-11T06:18:42.677Z,32.83
2023-05-11T06:21:09.240Z,28.17
2023-05-11T06:23:35.718Z,35.85
2023-05-11T06:26:04.710Z,26.25
2023-05-11T06:28:34.579Z,26.98
2023-05-11T06:31:06.723Z,26.75
2023-05-11T06:33:35.641Z,25.83
2023-05-11T06:36:08.548Z,22.80
2023-05-11T06:38:37.357Z,26.65
2023-05-11T06:41:03.796Z,23.20
2023-05-11T06:43:30.442Z,24.92
2023-05-11T06:45:56.981Z,22.88
2023-05-11T06:48:25.903Z,22.67
2023-05-11T06:50:52.434Z,22.10
2023-05-11T06:53:21.813Z,22.48
2023-05-11T06:55:50.748Z,20.13
2023-05-11T06:58:20.774Z,22.92
2023-05-11T07:00:47.462Z,24.88
2023-05-11T07:03:16.393Z,23.45
2023-05-11T07:05:43.100Z,21.83
2023-05-11T07:08:09.624Z,22.35
2023-05-11T07:10:38.526Z,21.05
2023-05-11T07:13:05.575Z,22.10
2023-05-11T07:15:32.080Z,19.98
2023-05-11T07:17:58.716Z,20.92
2023-05-11T07:20:27.558Z,18.88
2023-05-11T07:23:00.609Z,18.40
2023-05-11T07:25:27.101Z,20.58
2023-05-11T07:27:53.705Z,19.33
2023-05-11T07:30:22.866Z,18.75
2023-05-11T07:32:50.155Z,18.48
2023-05-11T07:35:16.821Z,17.77
2023-05-11T07:37:43.366Z,18.17
2023-05-11T07:40:12.312Z,17.67
2023-05-11T07:42:38.765Z,18.48
2023-05-11T07:45:07.624Z,18.55
2023-05-11T07:47:37.232Z,18.45
2023-05-11T07:50:03.893Z,18.38
2023-05-11T07:52:32.744Z,18.92
2023-05-11T07:54:59.324Z,17.88
2023-05-11T07:57:28.124Z,17.52
2023-05-11T07:59:54.599Z,17.92
2023-05-11T08:02:21.354Z,17.85
2023-05-11T08:04:48.053Z,19.23
2023-05-11T08:07:17.451Z,17.00
2023-05-11T08:09:44.416Z,16.92
2023-05-11T08:12:11.000Z,17.33
2023-05-11T08:14:37.925Z,16.90
2023-05-11T08:17:04.480Z,16.48
2023-05-11T08:19:31.130Z,16.50
2023-05-11T08:21:57.714Z,15.75
2023-05-11T08:24:24.259Z,16.20
2023-05-11T08:26:53.130Z,16.33
2023-05-11T08:29:19.750Z,15.65
2023-05-11T08:31:46.207Z,14.82
2023-05-11T08:34:19.803Z,14.45
2023-05-11T08:36:48.911Z,15.02
2023-05-11T08:39:24.679Z,14.68
2023-05-11T08:42:02.736Z,13.85
2023-05-11T08:44:29.608Z,14.13
2023-05-11T08:47:14.333Z,13.40
2023-05-11T08:49:44.876Z,14.10
2023-05-11T08:52:11.360Z,14.00
2023-05-11T08:54:38.019Z,14.57
2023-05-11T08:57:04.651Z,14.10
2023-05-11T08:59:31.168Z,14.02
2023-05-11T09:01:57.750Z,13.23
2023-05-11T09:04:24.253Z,13.45
2023-05-11T09:06:53.201Z,12.20
2023-05-11T09:09:19.742Z,12.82
2023-05-11T09:11:46.886Z,12.13
2023-05-11T09:14:13.434Z,11.65
2023-05-11T09:16:39.873Z,11.02
2023-05-11T09:19:06.471Z,11.65
2023-05-11T09:21:33.156Z,10.27
2023-05-11T09:24:00.705Z,12.15
2023-05-11T09:26:29.309Z,11.07
2023-05-11T09:29:02.859Z,10.85
2023-05-11T09:31:39.728Z,11.40
2023-05-11T09:34:24.633Z,9.98
2023-05-11T09:36:51.746Z,10.20
2023-05-11T09:42:14.250Z,11.52
2023-05-11T09:44:41.829Z,9.98
2023-05-11T09:47:18.280Z,9.68
2023-05-11T09:49:45.119Z,10.20
2023-05-11T09:52:14.003Z,9.73
2023-05-11T09:54:41.759Z,10.38
2023-05-11T09:57:10.095Z,11.13
2023-05-11T09:59:40.168Z,11.30
2023-05-11T10:02:16.011Z,13.35
2023-05-11T10:04:42.550Z,10.80
2023-05-11T10:07:11.405Z,9.65
2023-05-11T10:09:38.607Z,11.18
2023-05-11T10:12:05.547Z,11.43
2023-05-11T10:14:32.116Z,10.32
2023-05-11T10:17:01.033Z,10.57
2023-05-11T10:19:29.822Z,10.30
2023-05-11T10:21:56.581Z,10.70
2023-05-11T10:24:23.193Z,9.75
2023-05-11T10:26:49.900Z,9.57
2023-05-11T10:29:17.325Z,9.95
2023-05-11T10:31:44.566Z,9.32
2023-05-11T10:34:11.014Z,9.23
2023-05-11T10:36:45.730Z,9.63
2023-05-11T10:39:12.264Z,10.77
2023-05-11T10:41:46.287Z,9.48
2023-05-11T10:44:46.658Z,10.70
2023-05-11T10:47:31.984Z,10.25
2023-05-11T10:50:17.685Z,9.90
2023-05-11T10:52:53.226Z,10.55
2023-05-11T10:55:26.769Z,12.63
2023-05-11T10:58:10.550Z,9.48
2023-05-11T11:00:55.647Z,11.15
2023-05-11T11:03:24.598Z,12.82
2023-05-11T11:05:51.416Z,10.23
2023-05-11T11:08:18.012Z,9.57
2023-05-11T11:10:46.269Z,9.98
2023-05-11T11:13:13.548Z,10.68
2023-05-11T11:15:59.157Z,9.00
2023-05-11T11:18:34.746Z,9.02
2023-05-11T11:21:01.279Z,9.35
2023-05-11T11:23:39.965Z,12.35
2023-05-11T11:26:06.859Z,9.15
2023-05-11T11:28:52.202Z,9.75
2023-05-11T11:31:28.314Z,10.40
2023-05-11T11:33:59.064Z,8.95
2023-05-11T11:36:44.971Z,9.27
2023-05-11T11:39:11.537Z,9.43
2023-05-11T11:41:40.704Z,8.70
2023-05-11T11:44:15.144Z,9.15
2023-05-11T11:46:41.772Z,16.70
2023-05-11T11:49:11.089Z,8.73
2023-05-11T11:51:39.941Z,9.73
2023-05-11T11:54:06.861Z,10.73
2023-05-11T11:56:33.343Z,10.30
2023-05-11T11:59:00.146Z,8.75
2023-05-11T12:01:29.612Z,8.02
2023-05-11T12:04:10.169Z,8.63
2023-05-11T12:06:37.499Z,11.73
2023-05-11T12:09:06.251Z,14.20
2023-05-11T12:11:32.987Z,11.35
2023-05-11T12:13:59.732Z,13.02
2023-05-11T12:16:28.706Z,13.45
2023-05-11T12:18:58.439Z,14.73
2023-05-11T12:21:31.751Z,13.48
2023-05-11T12:23:58.439Z,14.60
2023-05-11T12:26:26.770Z,16.23
2023-05-11T12:29:12.956Z,15.07
2023-05-11T12:31:39.886Z,15.57
2023-05-11T12:34:06.463Z,14.95
2023-05-11T12:36:34.398Z,13.52
2023-05-11T12:39:05.764Z,13.40
2023-05-11T12:43:58.655Z,13.13
2023-05-11T12:46:25.214Z,13.38
2023-05-11T12:48:54.064Z,13.38
2023-05-11T12:51:39.462Z,12.10
2023-05-11T12:54:05.960Z,11.27
2023-05-11T12:56:47.430Z,12.55
2023-05-11T12:59:32.705Z,12.25
2023-05-11T13:02:09.921Z,10.07
2023-05-11T13:04:38.796Z,13.40
2023-05-11T13:07:05.230Z,11.68
2023-05-11T13:09:31.723Z,10.02
2023-05-11T13:12:17.527Z,9.88
2023-05-11T13:14:47.843Z,10.73
2023-05-11T13:17:15.120Z,12.40
2023-05-11T13:19:41.588Z,9.93
2023-05-11T13:22:10.776Z,9.82
2023-05-11T13:24:37.214Z,11.52
2023-05-11T13:27:03.644Z,9.93
2023-05-11T13:29:38.008Z,9.60
2023-05-11T13:32:07.201Z,9.52
2023-05-11T13:34:37.362Z,10.30
2023-05-11T13:37:04.342Z,12.50
2023-05-11T13:39:33.653Z,8.57
2023-05-11T13:42:00.378Z,9.15
2023-05-11T13:44:26.863Z,9.05
2023-05-11T13:46:53.388Z,9.55
2023-05-11T13:49:19.928Z,9.25
2023-05-11T13:51:46.404Z,9.55
2023-05-11T13:54:15.245Z,9.45
2023-05-11T13:56:41.710Z,12.88
2023-05-11T13:59:08.548Z,9.70
2023-05-11T14:01:35.112Z,11.18
2023-05-11T14:04:01.591Z,10.82
2023-05-11T14:06:30.358Z,9.05
2023-05-11T14:08:56.770Z,7.75
2023-05-11T14:11:23.627Z,9.13
2023-05-11T14:13:52.823Z,9.10
2023-05-11T14:16:21.623Z,8.75
2023-05-11T14:18:50.620Z,8.40
2023-05-11T14:21:17.533Z,9.20
2023-05-11T14:24:02.017Z,8.20
2023-05-11T14:26:32.938Z,9.30
2023-05-11T14:28:59.485Z,8.93
2023-05-11T14:31:26.907Z,13.15
2023-05-11T14:33:53.477Z,23.27
2023-05-11T14:36:20.745Z,34.22
2023-05-11T14:38:47.360Z,40.08
2023-05-11T14:41:14.394Z,39.35
2023-05-11T14:43:41.070Z,39.28
2023-05-11T14:46:07.703Z,34.60
2023-05-11T14:48:36.636Z,38.72
2023-05-11T14:51:05.561Z,41.83
2023-05-11T14:53:32.220Z,41.42
2023-05-11T14:56:01.509Z,47.70
2023-05-11T14:58:28.078Z,41.05
2023-05-11T15:00:54.846Z,38.20
2023-05-11T15:03:21.421Z,44.22
2023-05-11T15:05:51.066Z,41.63
2023-05-11T15:08:29.592Z,48.25
2023-05-11T15:10:57.340Z,44.63
2023-05-11T15:13:24.277Z,46.33
2023-05-11T15:15:51.442Z,42.38
2023-05-11T15:18:18.261Z,43.17
2023-05-11T15:20:44.932Z,44.83
2023-05-11T15:23:11.862Z,40.20
2023-05-11T15:25:38.478Z,43.72
2023-05-11T15:28:06.227Z,41.80
2023-05-11T15:30:33.083Z,39.22
2023-05-11T15:32:59.670Z,42.95
2023-05-11T15:35:27.182Z,43.80
2023-05-11T15:37:53.607Z,39.53
2023-05-11T15:40:20.167Z,42.10
2023-05-11T15:42:46.725Z,39.63
2023-05-11T15:45:13.270Z,40.22
2023-05-11T15:47:39.942Z,40.13
2023-05-11T15:50:06.924Z,39.95
2023-05-11T15:52:33.412Z,38.05
2023-05-11T15:54:59.922Z,39.35
2023-05-11T15:57:26.497Z,36.30
2023-05-11T15:59:55.567Z,36.15
2023-05-11T16:02:22.247Z,35.25
2023-05-11T16:04:51.336Z,37.20
2023-05-11T16:07:18.277Z,35.17
2023-05-11T16:09:44.835Z,34.47
2023-05-11T16:12:11.546Z,32.00
2023-05-11T16:14:38.263Z,34.20
2023-05-11T16:17:07.185Z,35.33
2023-05-11T16:19:33.765Z,35.17
2023-05-11T16:22:02.647Z,29.23
2023-05-11T16:24:32.160Z,30.42
2023-05-11T16:27:00.212Z,33.88
2023-05-11T16:29:26.658Z,27.95
2023-05-11T16:31:55.722Z,29.10
2023-05-11T16:34:24.607Z,33.25
2023-05-11T16:36:51.515Z,30.38
2023-05-11T16:39:20.738Z,27.20
2023-05-11T16:41:47.586Z,28.40
2023-05-11T16:44:14.029Z,29.48
2023-05-11T16:46:40.783Z,30.65
2023-05-11T16:49:07.358Z,29.63
2023-05-11T16:51:34.344Z,26.00
2023-05-11T16:54:00.905Z,27.77
2023-05-11T16:56:27.522Z,29.15
2023-05-11T16:58:54.169Z,27.33
2023-05-11T17:01:20.929Z,26.73
2023-05-11T17:03:47.718Z,27.17
2023-05-11T17:06:19.048Z,16.40
2023-05-11T17:08:47.146Z,17.33
2023-05-11T17:11:13.660Z,22.17
2023-05-11T17:13:42.485Z,21.38
2023-05-11T17:16:08.925Z,21.08
2023-05-11T17:18:35.599Z,17.77
2023-05-11T17:21:02.109Z,21.80
2023-05-11T17:23:28.669Z,18.75
2023-05-11T17:25:55.128Z,18.42
2023-05-11T17:28:24.285Z,18.30
2023-05-11T17:30:52.066Z,15.07
2023-05-11T17:33:21.054Z,16.75
2023-05-11T17:35:47.606Z,15.65
2023-05-11T17:38:14.141Z,16.75
2023-05-11T17:40:41.233Z,12.38
2023-05-11T17:43:07.769Z,13.32
2023-05-11T17:45:34.393Z,14.23
2023-05-11T17:48:01.029Z,12.40
2023-05-11T17:50:29.966Z,14.25
2023-05-11T17:52:56.562Z,12.23
2023-05-11T17:55:23.267Z,10.95
2023-05-11T17:57:51.711Z,11.85
2023-05-11T18:00:18.674Z,12.65
2023-05-11T18:02:48.889Z,12.23
2023-05-11T18:05:18.204Z,10.77
2023-05-11T18:07:47.026Z,9.63
2023-05-11T18:10:16.040Z,10.50
2023-05-11T18:12:42.704Z,11.55
2023-05-11T18:15:10.981Z,9.45
2023-05-11T18:17:37.497Z,11.48
2023-05-11T18:20:05.087Z,11.27
2023-05-11T18:22:31.678Z,10.40
2023-05-11T18:25:00.520Z,8.70
2023-05-11T18:27:27.035Z,9.23
2023-05-11T18:29:56.348Z,9.25
2023-05-11T18:32:22.958Z,8.80
2023-05-11T18:34:49.464Z,9.50
2023-05-11T18:37:16.315Z,8.30
2023-05-11T18:39:43.648Z,8.82
2023-05-11T18:42:12.369Z,8.75
2023-05-11T18:44:38.932Z,9.35
2023-05-11T18:47:10.764Z,8.18
2023-05-11T18:49:38.995Z,7.93
2023-05-11T18:52:05.661Z,8.77
2023-05-11T18:54:32.263Z,8.80
2023-05-11T18:56:58.746Z,8.25
2023-05-11T18:59:25.233Z,7.72
2023-05-11T19:01:51.929Z,7.47
2023-05-11T19:04:20.190Z,7.82
2023-05-11T19:06:46.759Z,10.43
2023-05-11T19:09:13.247Z,9.32
2023-05-11T19:11:39.738Z,9.27
2023-05-11T19:14:07.695Z,8.05
2023-05-11T19:16:35.868Z,8.75
2023-05-11T19:19:04.876Z,7.53
2023-05-11T19:21:31.644Z,8.35
2023-05-11T19:24:00.751Z,7.13
2023-05-11T19:26:27.290Z,7.70
2023-05-11T19:28:53.841Z,8.20
2023-05-11T19:31:25.289Z,8.73
2023-05-11T19:33:51.814Z,7.60
2023-05-11T19:36:18.677Z,7.13
2023-05-11T19:38:45.139Z,10.63
2023-05-11T19:41:13.972Z,6.80
2023-05-11T19:43:42.807Z,7.13
2023-05-11T19:46:09.534Z,6.95
2023-05-11T19:48:38.354Z,6.97
2023-05-11T19:51:04.876Z,7.82
2023-05-11T19:53:31.336Z,7.63
2023-05-11T19:55:57.866Z,7.32
2023-05-11T19:58:24.497Z,8.45
2023-05-11T20:00:51.020Z,6.85
2023-05-11T20:03:17.701Z,6.32
2023-05-11T20:05:44.418Z,6.60
2023-05-11T20:08:10.998Z,7.95
2023-05-11T20:10:37.652Z,6.55
2023-05-11T20:13:08.191Z,6.30
2023-05-11T20:15:34.723Z,7.30
2023-05-11T20:18:04.307Z,6.85
2023-05-11T20:20:31.032Z,7.47
2023-05-11T20:22:58.383Z,6.40
2023-05-11T20:25:24.859Z,6.32
2023-05-11T20:27:53.907Z,6.53
2023-05-11T20:30:22.999Z,6.60
2023-05-11T20:35:19.118Z,6.45
2023-05-11T20:37:46.249Z,6.93
2023-05-11T20:40:12.975Z,6.47
2023-05-11T20:42:39.444Z,8.07
2023-05-11T20:45:07.518Z,7.47
2023-05-11T20:47:34.545Z,7.57
2023-05-11T20:50:01.238Z,12.02
2023-05-11T20:52:27.752Z,6.90
2023-05-11T20:54:56.299Z,9.98
2023-05-11T20:57:22.893Z,6.57
2023-05-11T21:02:38.994Z,7.25
2023-05-11T21:05:07.910Z,7.75
2023-05-11T21:07:36.682Z,13.77
2023-05-11T21:10:05.537Z,11.05
2023-05-11T21:12:32.104Z,11.10
2023-05-11T21:15:00.855Z,7.75
2023-05-11T21:17:29.596Z,8.05
2023-05-11T21:19:58.444Z,9.23
2023-05-11T21:22:27.270Z,7.85
2023-05-11T21:24:53.857Z,8.35
2023-05-11T21:27:20.331Z,8.20
2023-05-11T21:29:49.176Z,7.13
2023-05-11T21:32:15.653Z,7.05
2023-05-11T21:34:43.404Z,9.52
2023-05-11T21:37:10.053Z,8.40
2023-05-11T21:39:41.451Z,8.73
2023-05-11T21:42:15.713Z,7.68
2023-05-11T21:44:42.201Z,12.18
2023-05-11T21:47:08.740Z,10.43
2023-05-11T21:49:36.830Z,8.05
2023-05-11T21:52:03.400Z,6.75
2023-05-11T21:54:29.866Z,10.95
2023-05-11T21:56:56.516Z,11.35
2023-05-11T21:59:26.636Z,7.05
2023-05-11T22:01:53.611Z,9.60
2023-05-11T22:04:22.447Z,6.97
2023-05-11T22:06:49.078Z,9.02
2023-05-11T22:09:15.706Z,8.63
2023-05-11T22:11:44.556Z,6.57
2023-05-11T22:14:13.367Z,8.23
2023-05-11T22:16:39.892Z,6.22
2023-05-11T22:19:07.513Z,9.50
2023-05-11T22:21:33.982Z,7.25
2023-05-11T22:24:04.196Z,8.50
2023-05-11T22:26:31.208Z,6.32
2023-05-11T22:28:57.663Z,5.93
2023-05-11T22:31:25.565Z,6.68
2023-05-11T22:33:52.100Z,6.40
2023-05-11T22:36:21.563Z,6.22
2023-05-11T22:38:47.978Z,6.30
2023-05-11T22:41:14.499Z,5.22
2023-05-11T22:43:43.135Z,5.65
2023-05-11T22:46:09.820Z,6.55
2023-05-11T22:48:36.275Z,5.43
2023-05-11T22:51:03.474Z,6.97
2023-05-11T22:53:29.964Z,6.40
2023-05-11T22:55:58.839Z,6.43
2023-05-11T22:58:25.449Z,7.72
2023-05-11T23:00:55.865Z,8.07
2023-05-11T23:03:22.517Z,5.50
2023-05-11T23:05:49.113Z,6.30
2023-05-11T23:08:15.648Z,7.13
2023-05-11T23:10:42.071Z,6.40
2023-05-11T23:13:11.913Z,7.45
2023-05-11T23:15:38.376Z,6.63
2023-05-11T23:18:04.914Z,6.60
2023-05-11T23:20:31.638Z,6.55
2023-05-11T23:22:58.191Z,6.88
2023-05-11T23:25:26.205Z,7.13
2023-05-11T23:27:54.829Z,6.38
2023-05-11T23:30:22.036Z,7.43
2023-05-11T23:32:48.803Z,7.43
2023-05-11T23:35:17.748Z,7.18
2023-05-11T23:37:45.261Z,7.72
2023-05-11T23:40:11.907Z,7.65
2023-05-11T23:42:39.227Z,6.80
2023-05-11T23:45:08.118Z,6.72
2023-05-11T23:47:35.279Z,7.43
2023-05-11T23:50:02.030Z,7.25
2023-05-11T23:52:28.576Z,7.28
2023-05-11T23:54:55.213Z,6.82
2023-05-11T23:57:21.655Z,6.30
2023-05-11T23:59:48.154Z,6.20
